Time;durP1;ratioP1;P1;durP2;ratioP2;P2;SDS_P1;SDS_P2;PMS_P1;PMS_P2;Temp;Humidity;BMP_temperature;BMP_pressure;BME280_temperature;BME280_humidity;BME280_pressure;Samples;Min_cycle;Max_cycle;Signal;HPM_P1;HPM_P2
2023/08/19 00:01:40;;;;;;;35.87;28.10;;;19.90;99.90;;;;;;5028387;28;20171;-66
2023/08/19 00:04:06;;;;;;;31.63;27.30;;;19.90;99.90;;;;;;5028761;28;20366;-66
2023/08/19 00:06:33;;;;;;;39.57;28.37;;;19.90;99.90;;;;;;5027439;28;20044;-66
2023/08/19 00:09:04;;;;;;;31.80;28.33;;;19.80;99.90;;;;;;5023047;28;20041;-67
2023/08/19 00:11:35;;;;;;;35.83;28.97;;;19.80;99.90;;;;;;5019800;28;20043;-66
2023/08/19 00:14:03;;;;;;;34.00;28.67;;;19.80;99.90;;;;;;5027454;28;20072;-66
2023/08/19 00:16:29;;;;;;;34.30;28.20;;;19.80;99.90;;;;;;5027211;28;20040;-66
2023/08/19 00:18:55;;;;;;;35.60;29.23;;;19.70;99.90;;;;;;5030375;28;20128;-66
2023/08/19 00:21:21;;;;;;;37.00;30.33;;;19.70;99.90;;;;;;5033207;28;20044;-67
2023/08/19 00:23:47;;;;;;;32.67;27.80;;;19.70;99.90;;;;;;5033127;28;20497;-66
2023/08/19 00:26:13;;;;;;;32.03;27.20;;;19.70;99.90;;;;;;5031480;28;20033;-67
2023/08/19 00:28:39;;;;;;;34.63;28.60;;;19.70;99.90;;;;;;5032959;28;20033;-67
2023/08/19 00:31:07;;;;;;;34.27;28.27;;;19.70;99.90;;;;;;5029095;28;20025;-66
2023/08/19 00:33:34;;;;;;;35.30;29.67;;;19.70;99.90;;;;;;5030880;28;20084;-66
2023/08/19 00:36:00;;;;;;;35.50;28.07;;;19.70;99.90;;;;;;5032493;28;20040;-66
2023/08/19 00:38:25;;;;;;;35.70;28.73;;;19.60;99.90;;;;;;5016284;28;20110;-67
2023/08/19 00:40:51;;;;;;;33.30;29.10;;;19.60;99.90;;;;;;5024322;28;20041;-66
2023/08/19 00:43:17;;;;;;;36.70;29.13;;;19.70;99.90;;;;;;5031502;28;20044;-66
2023/08/19 00:45:50;;;;;;;36.13;29.90;;;19.60;99.90;;;;;;5027652;28;20036;-66
2023/08/19 00:48:18;;;;;;;36.83;29.83;;;19.60;99.90;;;;;;5024536;28;20416;-66
2023/08/19 00:50:44;;;;;;;35.10;28.93;;;19.60;99.90;;;;;;5015332;28;20248;-66
2023/08/19 00:53:12;;;;;;;35.43;28.30;;;19.60;99.90;;;;;;5030014;28;20076;-66
2023/08/19 00:55:38;;;;;;;38.63;30.70;;;19.60;99.90;;;;;;5030061;28;20037;-66
2023/08/19 00:58:05;;;;;;;36.57;29.07;;;19.60;99.90;;;;;;5030661;28;20051;-67
2023/08/19 01:00:31;;;;;;;32.63;27.70;;;19.60;99.90;;;;;;5027425;28;20069;-67
2023/08/19 01:02:57;;;;;;;36.10;28.87;;;19.60;99.90;;;;;;5030929;28;20048;-67
2023/08/19 01:05:52;;;;;;;36.93;30.13;;;19.60;99.90;;;;;;5030459;28;20339;-67
2023/08/19 01:08:29;;;;;;;35.37;29.03;;;19.60;99.90;;;;;;5023737;28;20402;-66
2023/08/19 01:11:29;;;;;;;35.37;30.57;;;19.60;99.90;;;;;;5027914;28;20792;-67
2023/08/19 01:14:26;;;;;;;38.17;29.57;;;19.50;99.90;;;;;;5013715;28;20040;-67
2023/08/19 01:16:53;;;;;;;36.27;29.10;;;19.60;99.90;;;;;;5011170;28;20514;-67
2023/08/19 01:19:23;;;;;;;37.87;29.37;;;19.50;99.90;;;;;;5032200;28;20072;-67
2023/08/19 01:21:57;;;;;;;36.40;30.17;;;19.60;99.90;;;;;;5004316;28;20098;-66
2023/08/19 01:24:27;;;;;;;37.67;30.20;;;19.60;99.90;;;;;;5031746;28;20080;-67
2023/08/19 01:26:53;;;;;;;37.60;29.73;;;19.50;99.90;;;;;;5028496;28;20091;-67
2023/08/19 01:29:18;;;;;;;35.13;29.23;;;19.60;99.90;;;;;;5029246;28;20438;-67
2023/08/19 01:31:44;;;;;;;38.97;30.43;;;19.60;99.90;;;;;;5022321;28;20034;-67
2023/08/19 01:34:10;;;;;;;36.57;29.37;;;19.60;99.90;;;;;;5026223;28;20045;-67
2023/08/19 01:36:44;;;;;;;38.10;29.97;;;19.60;99.90;;;;;;5031761;28;20056;-67
2023/08/19 01:39:11;;;;;;;37.45;30.00;;;19.60;99.90;;;;;;5015338;28;20045;-67
2023/08/19 01:41:38;;;;;;;36.80;28.97;;;19.60;99.90;;;;;;5027835;28;20051;-67
2023/08/19 01:44:04;;;;;;;35.67;30.03;;;19.50;99.90;;;;;;5027182;28;20498;-67
2023/08/19 01:46:30;;;;;;;34.33;28.63;;;19.50;99.90;;;;;;5031540;28;20037;-67
2023/08/19 01:48:56;;;;;;;36.10;28.40;;;19.50;99.90;;;;;;5027506;28;20045;-67
2023/08/19 01:51:21;;;;;;;36.37;28.93;;;19.50;99.90;;;;;;5029772;28;20032;-67
2023/08/19 01:53:47;;;;;;;37.57;30.63;;;19.50;99.90;;;;;;5030143;28;20033;-67
2023/08/19 01:56:13;;;;;;;36.67;29.03;;;19.50;99.90;;;;;;5031175;28;20558;-67
2023/08/19 01:58:38;;;;;;;35.63;29.90;;;19.50;99.90;;;;;;5013463;28;20124;-67
2023/08/19 02:01:04;;;;;;;36.03;28.83;;;19.50;99.90;;;;;;5031118;28;20396;-67
2023/08/19 02:03:30;;;;;;;37.23;30.17;;;19.50;99.90;;;;;;5028678;28;20048;-67
2023/08/19 02:05:56;;;;;;;33.90;28.73;;;19.50;99.90;;;;;;5030751;28;20045;-67
2023/08/19 02:08:21;;;;;;;33.20;27.63;;;19.50;99.90;;;;;;5030550;28;20033;-67
2023/08/19 02:10:47;;;;;;;33.40;28.73;;;19.50;99.90;;;;;;5028189;28;20106;-67
2023/08/19 02:13:13;;;;;;;32.27;27.80;;;19.50;99.90;;;;;;5027060;28;20045;-67
2023/08/19 02:15:38;;;;;;;34.03;29.03;;;19.50;99.90;;;;;;5019040;28;21514;-67
2023/08/19 02:18:04;;;;;;;37.80;28.60;;;19.50;99.90;;;;;;5027855;28;20133;-67
2023/08/19 02:20:30;;;;;;;33.93;28.00;;;19.50;99.90;;;;;;5023655;28;20048;-67
2023/08/19 02:22:58;;;;;;;33.20;28.40;;;19.50;99.90;;;;;;5027457;28;20084;-67
2023/08/19 02:25:24;;;;;;;35.57;27.83;;;19.50;99.90;;;;;;5030789;28;20033;-67
2023/08/19 02:27:50;;;;;;;33.57;28.23;;;19.50;99.90;;;;;;5028158;28;20099;-67
2023/08/19 02:30:15;;;;;;;31.93;26.93;;;19.50;99.90;;;;;;5027494;28;20037;-67
2023/08/19 02:32:41;;;;;;;32.87;27.33;;;19.50;99.90;;;;;;5027897;28;20049;-67
2023/08/19 02:35:08;;;;;;;32.27;26.57;;;19.50;99.90;;;;;;5029084;28;20543;-67
2023/08/19 02:37:34;;;;;;;35.53;28.50;;;19.50;99.90;;;;;;5026491;28;20042;-67
2023/08/19 02:40:00;;;;;;;32.70;26.63;;;19.50;99.90;;;;;;5026242;28;20043;-67
2023/08/19 02:42:25;;;;;;;34.20;28.83;;;19.50;99.90;;;;;;5027258;28;20513;-67
2023/08/19 02:44:51;;;;;;;33.80;27.70;;;19.50;99.90;;;;;;5027013;28;20128;-67
2023/08/19 02:47:17;;;;;;;33.87;27.77;;;19.50;99.90;;;;;;5024389;28;20075;-67
2023/08/19 02:49:43;;;;;;;35.83;27.73;;;19.50;99.90;;;;;;5026149;28;20589;-67
2023/08/19 02:52:09;;;;;;;33.37;26.77;;;19.50;99.90;;;;;;5025137;28;20045;-67
2023/08/19 02:54:35;;;;;;;30.57;25.47;;;19.50;99.90;;;;;;5024090;28;20056;-67
2023/08/19 02:57:01;;;;;;;33.13;26.87;;;19.50;99.90;;;;;;5026469;28;20442;-67
2023/08/19 02:59:26;;;;;;;31.60;25.97;;;19.50;99.90;;;;;;5027339;28;20041;-67
2023/08/19 03:01:52;;;;;;;31.57;26.10;;;19.50;99.90;;;;;;5011168;28;20425;-67
2023/08/19 03:04:18;;;;;;;31.40;25.53;;;19.50;99.90;;;;;;5011955;28;20095;-67
2023/08/19 03:06:44;;;;;;;32.93;26.00;;;19.60;99.90;;;;;;5007055;28;20094;-67
2023/08/19 03:09:09;;;;;;;41.87;26.47;;;19.60;99.90;;;;;;5009651;28;20033;-67
2023/08/19 03:11:36;;;;;;;28.97;24.03;;;19.60;99.90;;;;;;5024128;28;20108;-67
2023/08/19 03:14:02;;;;;;;29.80;25.40;;;19.70;99.90;;;;;;5027826;28;20176;-67
2023/08/19 03:16:28;;;;;;;33.07;25.43;;;19.70;99.90;;;;;;5024585;28;20099;-67
2023/08/19 03:18:53;;;;;;;32.27;25.50;;;19.70;99.90;;;;;;5023013;28;20330;-67
2023/08/19 03:21:19;;;;;;;29.20;25.40;;;19.80;99.90;;;;;;5024980;28;20416;-67
2023/08/19 03:23:45;;;;;;;31.63;25.37;;;19.80;99.90;;;;;;5027572;28;20118;-67
2023/08/19 03:26:11;;;;;;;31.33;25.83;;;19.80;99.90;;;;;;5025562;28;20150;-67
2023/08/19 03:28:36;;;;;;;27.97;23.23;;;19.80;99.90;;;;;;5026905;28;20036;-67
2023/08/19 03:31:09;;;;;;;28.97;25.17;;;19.90;99.90;;;;;;5022858;28;20116;-67
2023/08/19 03:33:35;;;;;;;29.23;23.57;;;19.90;99.90;;;;;;5022985;28;20052;-67
2023/08/19 03:36:01;;;;;;;30.17;22.70;;;19.80;99.90;;;;;;5028941;28;20037;-67
2023/08/19 03:38:27;;;;;;;27.70;23.20;;;19.80;99.90;;;;;;5028791;28;20059;-67
2023/08/19 03:40:52;;;;;;;26.70;23.03;;;19.80;99.90;;;;;;5027153;28;20053;-67
2023/08/19 03:43:18;;;;;;;29.77;23.23;;;19.80;99.90;;;;;;5030090;28;20124;-67
2023/08/19 03:45:44;;;;;;;32.40;23.90;;;19.80;99.90;;;;;;5027648;28;20037;-67
2023/08/19 03:48:11;;;;;;;27.33;23.13;;;19.70;99.90;;;;;;5029669;28;20066;-67
2023/08/19 03:50:37;;;;;;;30.30;24.90;;;19.80;99.90;;;;;;5020611;28;20428;-67
2023/08/19 03:53:03;;;;;;;24.40;19.90;;;19.80;99.90;;;;;;5020223;28;20036;-67
2023/08/19 03:55:30;;;;;;;25.63;19.57;;;19.80;99.90;;;;;;5023866;28;20041;-67
2023/08/19 03:57:55;;;;;;;24.30;20.00;;;19.80;99.90;;;;;;5016630;28;20080;-67
2023/08/19 04:00:21;;;;;;;25.07;20.63;;;19.80;99.90;;;;;;5032211;28;20083;-67
2023/08/19 04:02:47;;;;;;;25.57;20.40;;;19.90;99.90;;;;;;5032554;28;20083;-67
2023/08/19 04:05:13;;;;;;;27.47;20.30;;;19.90;99.90;;;;;;5032226;28;20033;-67
2023/08/19 04:07:39;;;;;;;25.60;20.33;;;19.90;99.90;;;;;;5032381;28;20043;-67
2023/08/19 04:10:05;;;;;;;26.60;20.17;;;20.00;99.90;;;;;;5029773;28;20033;-67
2023/08/19 04:12:31;;;;;;;27.57;21.07;;;20.00;99.90;;;;;;5030615;28;20041;-67
2023/08/19 04:14:57;;;;;;;25.53;19.63;;;20.00;99.90;;;;;;5030382;28;20042;-67
2023/08/19 04:17:22;;;;;;;25.70;20.10;;;20.00;99.90;;;;;;5031339;28;20072;-67
2023/08/19 04:19:49;;;;;;;25.93;19.97;;;20.10;99.90;;;;;;5028292;28;20037;-67
2023/08/19 04:22:16;;;;;;;25.63;19.27;;;20.10;99.90;;;;;;5028170;28;20045;-67
2023/08/19 04:24:42;;;;;;;24.27;20.37;;;20.10;99.90;;;;;;5030485;28;20041;-67
2023/08/19 04:27:08;;;;;;;23.63;19.43;;;20.20;99.90;;;;;;5030449;28;20040;-67
2023/08/19 04:29:34;;;;;;;26.60;20.97;;;20.20;99.90;;;;;;5026756;28;20413;-67
2023/08/19 04:32:01;;;;;;;26.97;20.27;;;20.30;99.90;;;;;;5012085;28;20234;-67
2023/08/19 04:34:27;;;;;;;24.23;20.00;;;20.30;99.90;;;;;;5029765;28;20045;-67
2023/08/19 04:36:53;;;;;;;25.83;19.73;;;20.30;99.90;;;;;;5027816;28;20036;-67
2023/08/19 04:39:18;;;;;;;23.50;19.30;;;20.40;99.90;;;;;;5030362;28;20041;-67
2023/08/19 04:41:44;;;;;;;25.43;19.70;;;20.40;99.90;;;;;;5030831;28;20470;-67
2023/08/19 04:44:10;;;;;;;26.20;19.67;;;20.40;99.90;;;;;;5031481;28;20041;-67
2023/08/19 04:46:35;;;;;;;26.00;20.03;;;20.40;99.90;;;;;;5016237;28;20044;-67
2023/08/19 04:49:01;;;;;;;23.00;18.20;;;20.40;99.90;;;;;;5011873;28;20432;-67
2023/08/19 04:51:27;;;;;;;26.93;20.10;;;20.50;99.90;;;;;;5024467;28;20052;-67
2023/08/19 04:53:53;;;;;;;26.27;20.57;;;20.50;99.90;;;;;;5026260;28;20120;-67
2023/08/19 04:56:19;;;;;;;22.33;18.87;;;20.50;99.90;;;;;;5024330;28;20037;-67
2023/08/19 04:58:45;;;;;;;22.93;19.60;;;20.50;99.90;;;;;;5031331;28;20040;-67
2023/08/19 05:01:11;;;;;;;22.73;18.43;;;20.50;99.90;;;;;;5031327;28;20041;-67
2023/08/19 05:03:36;;;;;;;22.83;18.17;;;20.50;99.90;;;;;;5031613;28;20102;-67
2023/08/19 05:06:02;;;;;;;24.00;18.80;;;20.50;99.90;;;;;;5012825;28;20043;-67
2023/08/19 05:08:29;;;;;;;23.77;18.97;;;20.50;99.90;;;;;;5029539;28;20045;-67
2023/08/19 05:10:55;;;;;;;22.83;19.00;;;20.50;99.90;;;;;;5031812;28;20041;-67
2023/08/19 05:13:21;;;;;;;23.57;18.20;;;20.60;99.90;;;;;;5030344;28;20045;-67
2023/08/19 05:15:46;;;;;;;20.70;17.77;;;20.60;99.90;;;;;;5026474;28;20037;-67
2023/08/19 05:18:12;;;;;;;23.63;18.37;;;20.60;99.90;;;;;;5027949;28;20033;-67
2023/08/19 05:20:38;;;;;;;20.97;17.23;;;20.60;99.90;;;;;;5025697;28;20520;-67
2023/08/19 05:23:03;;;;;;;23.00;18.10;;;20.60;99.90;;;;;;5021619;28;20067;-67
2023/08/19 05:25:29;;;;;;;20.37;17.33;;;20.60;99.90;;;;;;5011886;28;20111;-67
2023/08/19 05:27:56;;;;;;;22.77;16.80;;;20.70;99.90;;;;;;5011707;28;20440;-67
2023/08/19 05:30:22;;;;;;;21.07;17.20;;;20.70;99.90;;;;;;5010724;28;20052;-67
2023/08/19 05:32:48;;;;;;;21.37;16.60;;;20.80;99.90;;;;;;5008713;28;20045;-67
2023/08/19 05:35:14;;;;;;;21.30;16.93;;;20.80;99.90;;;;;;5002670;28;20045;-67
2023/08/19 05:37:40;;;;;;;22.20;16.37;;;20.80;99.90;;;;;;5011904;28;20662;-67
2023/08/19 05:40:06;;;;;;;20.20;17.10;;;20.80;99.90;;;;;;4994887;28;20471;-67
2023/08/19 05:42:32;;;;;;;21.17;16.60;;;20.80;99.90;;;;;;5011985;28;20056;-67
2023/08/19 05:44:57;;;;;;;22.03;16.77;;;20.90;99.90;;;;;;5011528;28;20350;-67
2023/08/19 05:47:23;;;;;;;23.30;17.43;;;20.90;99.90;;;;;;5011220;28;20382;-67
2023/08/19 05:49:49;;;;;;;22.20;17.27;;;20.90;99.90;;;;;;5012207;28;20091;-67
2023/08/19 05:52:14;;;;;;;22.57;16.57;;;21.00;99.90;;;;;;5009813;28;20194;-67
2023/08/19 05:54:40;;;;;;;21.93;17.70;;;21.00;99.90;;;;;;5009966;28;20124;-67
2023/08/19 05:57:06;;;;;;;21.80;16.03;;;21.00;99.90;;;;;;5008043;28;20066;-67
2023/08/19 05:59:32;;;;;;;21.20;16.50;;;21.10;99.90;;;;;;5010067;28;20077;-67
2023/08/19 06:01:58;;;;;;;20.00;16.83;;;21.10;99.90;;;;;;5009450;28;20057;-67
2023/08/19 06:04:24;;;;;;;21.27;17.00;;;21.10;99.90;;;;;;5009281;28;20041;-67
2023/08/19 06:06:50;;;;;;;20.57;16.60;;;21.20;99.90;;;;;;5008515;28;20061;-67
2023/08/19 06:09:16;;;;;;;22.43;16.73;;;21.20;99.90;;;;;;4993261;28;20107;-67
2023/08/19 06:11:51;;;;;;;20.63;16.10;;;21.30;99.90;;;;;;5009649;28;20486;-67
2023/08/19 06:14:17;;;;;;;;;;;21.30;99.90;;;;;;5010147;28;20445;-67
2023/08/19 06:16:43;;;;;;;19.43;16.23;;;21.40;99.90;;;;;;5009020;28;19921;-67
2023/08/19 06:19:09;;;;;;;17.90;15.17;;;21.40;99.90;;;;;;4991102;28;20041;-67
2023/08/19 06:21:35;;;;;;;18.27;15.07;;;21.50;99.90;;;;;;5008539;28;20041;-67
2023/08/19 06:24:01;;;;;;;18.43;15.47;;;21.50;99.90;;;;;;5025403;28;20501;-67
2023/08/19 06:26:27;;;;;;;21.07;14.80;;;21.60;99.90;;;;;;5027872;28;20039;-67
2023/08/19 06:28:53;;;;;;;21.17;15.57;;;21.60;99.90;;;;;;5029070;28;20041;-67
2023/08/19 06:31:19;;;;;;;19.73;16.23;;;21.70;99.90;;;;;;5025740;28;20048;-67
2023/08/19 06:33:45;;;;;;;20.57;15.20;;;21.70;99.90;;;;;;5028510;28;20129;-67
2023/08/19 06:36:14;;;;;;;18.97;14.77;;;21.70;99.70;;;;;;5027131;28;20044;-67
2023/08/19 06:38:46;;;;;;;18.40;15.07;;;21.80;99.60;;;;;;5028014;28;20036;-67
2023/08/19 06:41:13;;;;;;;17.30;14.43;;;21.80;99.40;;;;;;5010991;28;20041;-67
2023/08/19 06:43:39;;;;;;;19.70;14.10;;;21.90;99.20;;;;;;5025025;28;20102;-67
2023/08/19 06:46:07;;;;;;;18.83;14.90;;;21.90;99.00;;;;;;5045300;28;20185;-67
2023/08/19 06:48:34;;;;;;;17.03;13.67;;;21.90;98.90;;;;;;5029476;28;20120;-67
2023/08/19 06:51:00;;;;;;;20.60;14.57;;;22.00;98.70;;;;;;5030055;28;20048;-67
2023/08/19 06:53:27;;;;;;;15.67;13.80;;;22.00;98.50;;;;;;5024268;28;20048;-67
2023/08/19 06:56:38;;;;;;;17.53;13.90;;;22.10;98.20;;;;;;5030495;28;20036;-67
2023/08/19 06:59:11;;;;;;;17.90;13.43;;;22.20;98.10;;;;;;5029950;28;20047;-67
2023/08/19 07:01:39;;;;;;;16.43;13.00;;;22.20;97.60;;;;;;5030458;28;20404;-67
2023/08/19 07:04:06;;;;;;;16.17;13.20;;;22.20;97.50;;;;;;5029063;28;20120;-68
2023/08/19 07:06:32;;;;;;;15.93;12.47;;;22.30;97.30;;;;;;5029479;28;20084;-68
2023/08/19 07:09:00;;;;;;;17.63;13.20;;;22.30;97.30;;;;;;5026059;28;20073;-67
2023/08/19 07:11:27;;;;;;;15.07;12.67;;;22.40;97.20;;;;;;5031892;28;20080;-68
2023/08/19 07:13:53;;;;;;;17.50;13.13;;;22.40;97.00;;;;;;5027721;28;20497;-68
2023/08/19 07:16:22;;;;;;;16.07;12.53;;;22.40;96.70;;;;;;5027438;28;20041;-68
2023/08/19 07:18:54;;;;;;;14.23;11.80;;;22.50;96.80;;;;;;5030662;28;20044;-68
2023/08/19 07:21:24;;;;;;;21.37;13.17;;;22.50;96.80;;;;;;5016804;28;20677;-68
2023/08/19 07:23:54;;;;;;;14.20;11.80;;;22.50;96.50;;;;;;5030677;28;20053;-68
2023/08/19 07:26:22;;;;;;;14.60;12.30;;;22.50;96.50;;;;;;5006733;28;20102;-67
2023/08/19 07:28:49;;;;;;;14.83;11.33;;;22.60;96.00;;;;;;5027220;28;20036;-67
2023/08/19 07:31:16;;;;;;;14.23;11.43;;;22.60;95.90;;;;;;5005913;28;20044;-68
2023/08/19 07:33:42;;;;;;;15.47;11.20;;;22.60;95.80;;;;;;5031183;28;20119;-67
2023/08/19 07:36:08;;;;;;;16.23;11.83;;;22.70;95.60;;;;;;5026524;28;20041;-68
2023/08/19 07:38:34;;;;;;;15.63;11.93;;;22.70;95.30;;;;;;5006373;28;20375;-68
2023/08/19 07:40:59;;;;;;;16.57;11.90;;;22.80;94.70;;;;;;5021026;28;20178;-68
2023/08/19 07:43:25;;;;;;;15.27;11.40;;;22.80;94.50;;;;;;5028236;28;20128;-68
2023/08/19 07:45:51;;;;;;;13.90;11.13;;;22.90;93.70;;;;;;5011893;28;20079;-67
2023/08/19 07:48:16;;;;;;;13.73;10.43;;;23.00;94.00;;;;;;5027322;28;20037;-67
2023/08/19 07:50:42;;;;;;;16.80;10.90;;;23.10;93.80;;;;;;5026590;28;20040;-67
2023/08/19 07:53:08;;;;;;;14.87;11.07;;;23.20;93.70;;;;;;5043039;28;20040;-67
2023/08/19 07:55:33;;;;;;;16.73;10.40;;;23.30;93.80;;;;;;5026335;28;20673;-68
2023/08/19 07:58:02;;;;;;;11.73;10.20;;;23.50;93.30;;;;;;5028223;28;20053;-68
2023/08/19 08:00:28;;;;;;;16.93;10.23;;;23.60;93.10;;;;;;5028632;28;20040;-66
2023/08/19 08:02:54;;;;;;;13.30;9.83;;;23.80;93.00;;;;;;5028222;28;20045;-67
2023/08/19 08:05:24;;;;;;;14.47;10.10;;;24.00;92.30;;;;;;5045124;28;20049;-67
2023/08/19 08:07:49;;;;;;;11.00;8.83;;;24.20;91.30;;;;;;5028911;28;20073;-67
2023/08/19 08:10:15;;;;;;;14.53;9.50;;;24.50;90.70;;;;;;5017482;28;20041;-67
2023/08/19 08:12:41;;;;;;;14.37;9.50;;;24.70;88.50;;;;;;5022919;28;20449;-67
2023/08/19 08:15:09;;;;;;;11.13;9.40;;;24.90;88.30;;;;;;5004212;28;20456;-67
2023/08/19 08:17:38;;;;;;;11.47;9.27;;;25.00;87.30;;;;;;5045136;28;20037;-68
2023/08/19 08:20:04;;;;;;;10.60;9.13;;;25.10;86.60;;;;;;5020859;28;20493;-68
2023/08/19 08:22:32;;;;;;;10.73;8.87;;;25.30;86.30;;;;;;5022962;28;20067;-67
2023/08/19 08:24:58;;;;;;;16.03;10.17;;;25.50;86.00;;;;;;5026553;28;20056;-68
2023/08/19 08:27:25;;;;;;;13.80;10.00;;;25.70;85.40;;;;;;5025008;28;20828;-69
2023/08/19 08:29:50;;;;;;;10.27;8.93;;;25.70;84.30;;;;;;5025870;28;20512;-69
2023/08/19 08:32:17;;;;;;;12.17;8.53;;;25.80;84.30;;;;;;5021739;28;20038;-69
2023/08/19 08:34:42;;;;;;;12.30;9.43;;;25.80;83.50;;;;;;5011884;28;20056;-69
2023/08/19 08:37:08;;;;;;;13.70;9.20;;;25.80;83.30;;;;;;5014030;28;20037;-68
2023/08/19 08:39:34;;;;;;;13.80;9.20;;;25.80;82.50;;;;;;5032031;28;20045;-69
2023/08/19 08:42:00;;;;;;;10.27;8.00;;;25.80;82.50;;;;;;5033567;28;20045;-68
2023/08/19 08:44:26;;;;;;;13.67;9.23;;;25.90;81.70;;;;;;5035118;28;20159;-70
2023/08/19 08:46:55;;;;;;;10.80;8.67;;;25.90;82.00;;;;;;5031250;28;20033;-70
2023/08/19 08:49:24;;;;;;;12.90;8.87;;;26.00;82.10;;;;;;5014923;28;20049;-70
2023/08/19 08:51:51;;;;;;;11.47;9.10;;;26.00;82.00;;;;;;5017275;28;20041;-70
2023/08/19 08:54:19;;;;;;;13.40;9.27;;;26.00;81.30;;;;;;5028130;28;20066;-70
2023/08/19 08:56:45;;;;;;;14.10;9.60;;;25.90;80.60;;;;;;5014614;28;20104;-70
2023/08/19 08:59:12;;;;;;;13.67;9.83;;;25.80;80.20;;;;;;5028088;28;20418;-70
2023/08/19 09:01:39;;;;;;;13.30;8.63;;;25.80;81.20;;;;;;5031917;28;20047;-70
2023/08/19 09:04:09;;;;;;;12.17;8.73;;;25.70;80.90;;;;;;5015377;28;20051;-70
2023/08/19 09:06:37;;;;;;;12.00;8.67;;;25.70;81.10;;;;;;5024613;28;20041;-70
2023/08/19 09:09:08;;;;;;;12.77;9.47;;;25.70;81.50;;;;;;5030816;28;20037;-70
2023/08/19 09:11:38;;;;;;;10.67;8.93;;;25.80;81.80;;;;;;5032033;28;20044;-70
2023/08/19 09:14:27;;;;;;;13.27;9.37;;;25.80;81.90;;;;;;5031977;28;20041;-70
2023/08/19 09:16:53;;;;;;;14.67;9.60;;;25.90;81.50;;;;;;5030863;28;20037;-70
2023/08/19 09:19:19;;;;;;;11.47;9.50;;;26.00;81.40;;;;;;5024550;28;20083;-70
2023/08/19 09:21:44;;;;;;;13.70;10.10;;;26.10;81.30;;;;;;5018231;28;20047;-70
2023/08/19 09:24:15;;;;;;;17.43;10.07;;;26.20;80.60;;;;;;5029948;28;20146;-70
2023/08/19 09:26:41;;;;;;;11.67;9.33;;;26.30;80.00;;;;;;5029890;28;20432;-67
2023/08/19 09:29:07;;;;;;;13.70;9.13;;;26.20;80.00;;;;;;5015799;28;20048;-68
2023/08/19 09:31:32;;;;;;;11.43;9.37;;;26.30;80.10;;;;;;5012943;28;20120;-68
2023/08/19 09:34:00;;;;;;;12.30;9.80;;;26.30;80.10;;;;;;5029871;28;20134;-69
2023/08/19 09:36:26;;;;;;;11.57;9.73;;;26.30;80.40;;;;;;5026577;28;20052;-69
2023/08/19 09:38:56;;;;;;;14.43;10.27;;;26.30;80.60;;;;;;5024009;28;20117;-69
2023/08/19 09:41:27;;;;;;;14.27;10.10;;;26.30;80.90;;;;;;5007300;28;20053;-69
2023/08/19 09:43:53;;;;;;;12.03;9.40;;;26.40;81.10;;;;;;5028908;28;20044;-68
2023/08/19 09:46:19;;;;;;;14.53;10.20;;;26.50;81.20;;;;;;5013920;28;20052;-69
2023/08/19 09:48:55;;;;;;;12.50;9.50;;;26.60;80.90;;;;;;5031255;28;20486;-69
2023/08/19 09:51:25;;;;;;;12.10;9.37;;;26.80;80.70;;;;;;5030128;28;20552;-69
2023/08/19 09:53:51;;;;;;;13.53;10.80;;;27.00;80.60;;;;;;5028595;28;20482;-69
2023/08/19 09:56:25;;;;;;;13.60;9.83;;;27.20;80.00;;;;;;5031305;28;20041;-69
2023/08/19 09:58:54;;;;;;;12.52;10.00;;;27.50;79.40;;;;;;5028656;28;20043;-69
2023/08/19 10:01:22;;;;;;;13.53;10.43;;;27.80;78.50;;;;;;5028746;28;20110;-69
2023/08/19 10:03:49;;;;;;;12.43;10.43;;;28.10;77.50;;;;;;5030538;28;20099;-69
2023/08/19 10:06:21;;;;;;;12.57;10.80;;;28.20;76.40;;;;;;5027405;28;20044;-69
2023/08/19 10:08:49;;;;;;;13.50;10.73;;;28.30;75.90;;;;;;5025273;28;20032;-69
2023/08/19 10:11:17;;;;;;;16.73;11.77;;;28.20;75.30;;;;;;5024464;28;20805;-69
2023/08/19 10:13:46;;;;;;;16.43;12.00;;;28.10;75.30;;;;;;5027340;28;20102;-68
2023/08/19 10:16:14;;;;;;;18.33;12.27;;;28.00;75.50;;;;;;5028144;28;20049;-69
2023/08/19 10:18:44;;;;;;;14.40;11.90;;;28.00;75.70;;;;;;5014001;28;20080;-69
2023/08/19 10:21:13;;;;;;;14.63;11.47;;;27.90;75.40;;;;;;5027936;28;20377;-69
2023/08/19 10:23:43;;;;;;;16.67;12.40;;;27.80;75.50;;;;;;5030995;28;20152;-69
2023/08/19 10:26:09;;;;;;;15.90;12.10;;;27.80;75.90;;;;;;5032506;28;20036;-69
2023/08/19 10:28:35;;;;;;;15.90;13.73;;;27.80;75.80;;;;;;5019587;28;20037;-69
2023/08/19 10:31:09;;;;;;;16.90;12.80;;;27.90;75.20;;;;;;5029688;28;20048;-69
2023/08/19 10:33:41;;;;;;;15.07;13.27;;;28.00;75.20;;;;;;5022610;28;20040;-69
2023/08/19 10:36:08;;;;;;;21.67;14.67;;;28.20;74.90;;;;;;5029885;28;20033;-69
2023/08/19 10:38:53;;;;;;;15.97;13.43;;;28.40;74.00;;;;;;5029861;28;20044;-69
2023/08/19 10:41:27;;;;;;;18.98;15.30;;;28.50;73.30;;;;;;5023228;28;20033;-69
2023/08/19 10:43:54;;;;;;;20.63;16.42;;;28.50;73.80;;;;;;5022019;28;20163;-69
2023/08/19 10:46:25;;;;;;;22.60;17.40;;;28.40;73.30;;;;;;5011739;28;20131;-69
2023/08/19 10:48:51;;;;;;;21.53;18.30;;;28.20;73.10;;;;;;5039608;28;20048;-69
2023/08/19 10:51:20;;;;;;;23.13;18.67;;;27.90;74.00;;;;;;5026354;28;20037;-69
2023/08/19 10:54:04;;;;;;;25.47;20.70;;;27.60;75.20;;;;;;5031999;28;20104;-69
2023/08/19 10:56:30;;;;;;;25.80;21.67;;;27.40;76.10;;;;;;5029014;28;20040;-69
2023/08/19 10:58:56;;;;;;;28.90;22.97;;;27.20;77.30;;;;;;5029338;28;20040;-69
2023/08/19 11:01:23;;;;;;;31.00;22.83;;;26.90;77.40;;;;;;5012332;28;20048;-68
2023/08/19 11:03:49;;;;;;;38.70;28.47;;;26.80;78.00;;;;;;5023068;28;20040;-68
2023/08/19 11:06:15;;;;;;;41.67;29.60;;;26.40;78.10;;;;;;5022593;28;20141;-70
2023/08/19 11:08:45;;;;;;;35.57;25.70;;;26.20;78.30;;;;;;5014918;28;20064;-70
2023/08/19 11:11:16;;;;;;;33.43;24.53;;;26.10;79.20;;;;;;5037315;28;20040;-69
2023/08/19 11:13:43;;;;;;;32.93;23.43;;;26.00;79.50;;;;;;5031059;28;20045;-70
2023/08/19 11:16:08;;;;;;;29.80;21.57;;;26.00;79.30;;;;;;5031721;28;20124;-71
2023/08/19 11:18:41;;;;;;;27.97;21.50;;;26.00;79.20;;;;;;5045341;28;20036;-70
2023/08/19 11:21:07;;;;;;;31.73;20.83;;;25.90;78.70;;;;;;5042407;28;20044;-70
2023/08/19 11:23:33;;;;;;;25.50;18.57;;;26.00;79.40;;;;;;5030762;28;21109;-69
2023/08/19 11:25:59;;;;;;;24.80;18.37;;;26.10;79.10;;;;;;5031129;28;20628;-70
2023/08/19 11:28:27;;;;;;;23.23;16.77;;;26.20;78.30;;;;;;5029953;28;20041;-70
2023/08/19 11:30:53;;;;;;;22.20;15.30;;;26.30;78.20;;;;;;5025428;28;20041;-69
2023/08/19 11:33:19;;;;;;;17.60;11.70;;;26.20;77.40;;;;;;5031212;28;20044;-70
2023/08/19 11:35:46;;;;;;;15.27;10.63;;;26.20;76.30;;;;;;5031452;28;20119;-70
2023/08/19 11:38:13;;;;;;;15.93;11.70;;;26.20;75.20;;;;;;5012132;28;20092;-70
2023/08/19 11:40:39;;;;;;;15.70;11.70;;;26.10;74.60;;;;;;5029466;28;20175;-70
2023/08/19 11:43:07;;;;;;;14.20;10.87;;;26.00;74.50;;;;;;5028515;28;20045;-70
2023/08/19 11:45:37;;;;;;;16.07;11.43;;;25.90;73.20;;;;;;5028269;28;20045;-71
2023/08/19 11:48:11;;;;;;;15.07;11.17;;;25.90;73.10;;;;;;5031693;28;20045;-70
2023/08/19 11:50:49;;;;;;;15.88;10.45;;;25.80;72.00;;;;;;5029391;28;20144;-71
2023/08/19 11:53:26;;;;;;;14.27;9.17;;;25.70;72.50;;;;;;5030630;28;20396;-69
2023/08/19 11:55:58;;;;;;;13.03;8.17;;;25.50;71.80;;;;;;5041553;28;20478;-71
2023/08/19 11:58:51;;;;;;;9.40;7.13;;;25.60;72.20;;;;;;5023631;28;20037;-69
2023/08/19 12:01:21;;;;;;;11.57;7.00;;;25.70;70.60;;;;;;5009421;28;20045;-71
2023/08/19 12:03:48;;;;;;;11.10;7.07;;;25.80;71.60;;;;;;5027574;28;20033;-70
2023/08/19 12:06:15;;;;;;;10.27;6.40;;;25.90;70.00;;;;;;5025479;28;20179;-70
2023/08/19 12:08:44;;;;;;;10.93;6.77;;;26.00;71.10;;;;;;5028928;28;20052;-69
2023/08/19 12:11:11;;;;;;;8.10;5.87;;;26.00;70.50;;;;;;5030021;28;20044;-69
2023/08/19 12:13:37;;;;;;;8.13;5.03;;;26.00;70.50;;;;;;5030444;28;20072;-70
2023/08/19 12:16:04;;;;;;;6.60;4.20;;;25.90;70.40;;;;;;5017099;28;20036;-70
2023/08/19 12:18:34;;;;;;;7.30;3.07;;;25.80;70.90;;;;;;5035495;28;20037;-70
2023/08/19 12:21:05;;;;;;;5.63;2.63;;;25.70;70.00;;;;;;5017892;28;20056;-69
2023/08/19 12:23:31;;;;;;;5.70;3.10;;;25.60;70.00;;;;;;5025927;28;20037;-70
2023/08/19 12:25:58;;;;;;;6.17;3.00;;;25.40;70.20;;;;;;5032483;28;20103;-70
2023/08/19 12:28:25;;;;;;;5.77;3.13;;;25.40;70.70;;;;;;5032184;28;20099;-70
2023/08/19 12:30:52;;;;;;;5.03;2.50;;;25.30;70.20;;;;;;5026251;28;20116;-70